Time;durP1;ratioP1;P1;durP2;ratioP2;P2;SDS_P1;SDS_P2;PMS_P1;PMS_P2;Temp;Humidity;BMP_temperature;BMP_pressure;BME280_temperature;BME280_humidity;BME280_pressure;Samples;Min_cycle;Max_cycle;Signal;HPM_P1;HPM_P2
2022/10/28 00:02:14;;;;;;;15.95;5.78;;;18.60;78.10;;;;;;5003613;28;20069;-82
2022/10/28 00:04:40;;;;;;;15.98;5.28;;;18.60;78.10;;;;;;5003457;28;20465;-75
2022/10/28 00:07:05;;;;;;;19.42;5.35;;;18.60;78.10;;;;;;5000572;28;20046;-78
2022/10/28 00:09:31;;;;;;;17.52;5.80;;;18.60;78.00;;;;;;5001763;28;20045;-75
2022/10/28 00:11:57;;;;;;;17.17;5.70;;;18.70;77.80;;;;;;4996430;28;20107;-82
2022/10/28 00:14:22;;;;;;;17.55;6.30;;;18.70;77.60;;;;;;5005736;28;20545;-75
2022/10/28 00:16:48;;;;;;;17.50;5.30;;;18.70;77.80;;;;;;5004449;28;20295;-75
2022/10/28 00:19:14;;;;;;;14.43;5.25;;;18.60;77.70;;;;;;5006545;28;20049;-75
2022/10/28 00:21:42;;;;;;;16.92;6.20;;;18.60;77.70;;;;;;4999587;28;20049;-75
2022/10/28 00:24:09;;;;;;;15.73;6.18;;;18.60;77.80;;;;;;5001901;28;20041;-80
2022/10/28 00:26:37;;;;;;;15.13;6.35;;;18.60;77.70;;;;;;5000368;28;20096;-75
2022/10/28 00:29:05;;;;;;;16.70;5.93;;;18.60;77.90;;;;;;5002805;28;20159;-75
2022/10/28 00:31:33;;;;;;;13.00;5.60;;;18.60;77.90;;;;;;5002631;28;20458;-78
2022/10/28 00:34:01;;;;;;;13.88;5.72;;;18.60;77.90;;;;;;5003947;28;20477;-75
2022/10/28 00:36:30;;;;;;;11.90;5.63;;;18.50;78.00;;;;;;4984384;28;20043;-75
2022/10/28 00:38:56;;;;;;;12.27;5.38;;;18.50;78.20;;;;;;4999427;28;20377;-75
2022/10/28 00:41:26;;;;;;;17.60;6.20;;;18.50;78.30;;;;;;4986113;28;20111;-76
2022/10/28 00:44:14;;;;;;;16.65;5.50;;;18.40;78.40;;;;;;4988068;28;20038;-75
2022/10/28 00:46:44;;;;;;;15.45;5.60;;;18.40;78.50;;;;;;4965415;28;20037;-75
2022/10/28 00:49:19;;;;;;;15.88;6.47;;;18.40;78.50;;;;;;5002956;28;20038;-74
2022/10/28 00:51:47;;;;;;;12.88;6.00;;;18.40;78.70;;;;;;5002662;28;20038;-77
2022/10/28 00:54:14;;;;;;;15.02;5.70;;;18.30;78.50;;;;;;5005574;28;20112;-75
2022/10/28 00:56:45;;;;;;;16.92;5.75;;;18.30;78.60;;;;;;5008460;28;20042;-75
2022/10/28 00:59:24;;;;;;;13.98;6.03;;;18.40;78.70;;;;;;4988560;28;20460;-75
2022/10/28 01:01:51;;;;;;;13.07;5.78;;;18.30;78.80;;;;;;4990318;28;20030;-77
2022/10/28 01:04:16;;;;;;;15.02;6.03;;;18.30;78.70;;;;;;5003752;28;20030;-75
2022/10/28 01:06:42;;;;;;;11.93;5.75;;;18.20;78.70;;;;;;5006556;28;20121;-80
2022/10/28 01:09:08;;;;;;;15.70;5.55;;;18.20;78.80;;;;;;5002444;28;20076;-75
2022/10/28 01:11:58;;;;;;;12.90;5.40;;;18.10;79.00;;;;;;5006000;28;20557;-75
2022/10/28 01:14:53;;;;;;;11.93;5.47;;;18.10;79.00;;;;;;5003464;28;20062;-75
2022/10/28 01:17:21;;;;;;;14.48;5.82;;;18.10;79.20;;;;;;4973881;28;20037;-80
2022/10/28 01:19:53;;;;;;;16.58;5.72;;;18.00;79.30;;;;;;4994185;28;20046;-76
2022/10/28 01:22:35;;;;;;;17.13;5.88;;;17.90;79.50;;;;;;4989648;28;20105;-81
2022/10/28 01:25:28;;;;;;;16.92;6.20;;;17.90;80.00;;;;;;5006176;28;20022;-81
2022/10/28 01:28:13;;;;;;;13.80;6.28;;;17.80;79.90;;;;;;5006094;28;20034;-79
2022/10/28 01:31:07;;;;;;;13.13;5.70;;;17.80;80.10;;;;;;5006595;28;20034;-78
2022/10/28 01:33:40;;;;;;;15.35;6.35;;;17.70;80.20;;;;;;4995972;28;20034;-79
2022/10/28 01:36:51;;;;;;;14.32;6.53;;;17.70;80.30;;;;;;5001665;28;20408;-76
2022/10/28 01:39:25;;;;;;;13.82;5.78;;;17.70;80.50;;;;;;4958515;28;20129;-75
2022/10/28 01:42:15;;;;;;;14.82;6.28;;;17.60;80.50;;;;;;5006812;28;20037;-74
2022/10/28 01:44:41;;;;;;;16.52;6.47;;;17.60;80.60;;;;;;5005067;28;20551;-75
2022/10/28 01:47:17;;;;;;;16.42;5.95;;;17.60;80.80;;;;;;5005304;28;20045;-74
2022/10/28 01:49:52;;;;;;;15.95;6.82;;;17.60;80.70;;;;;;4999886;28;20121;-75
2022/10/28 01:52:22;;;;;;;18.02;6.97;;;17.60;80.80;;;;;;5003476;28;20034;-74
2022/10/28 01:54:53;;;;;;;15.40;6.55;;;17.60;80.90;;;;;;4985228;28;20058;-74
2022/10/28 01:57:22;;;;;;;17.13;7.10;;;17.60;80.90;;;;;;5002658;28;20073;-81
2022/10/28 01:59:48;;;;;;;16.10;7.10;;;17.60;81.00;;;;;;5005639;28;20049;-74
2022/10/28 02:02:16;;;;;;;16.13;6.80;;;17.50;81.20;;;;;;5005349;28;20038;-78
2022/10/28 02:04:41;;;;;;;15.50;6.72;;;17.50;81.00;;;;;;5005366;28;20161;-78
2022/10/28 02:07:07;;;;;;;13.07;7.20;;;17.60;80.90;;;;;;4988465;28;20128;-74
2022/10/28 02:09:48;;;;;;;16.17;6.18;;;17.60;80.80;;;;;;4989895;28;20473;-75
2022/10/28 02:12:23;;;;;;;21.17;7.30;;;17.50;80.70;;;;;;4987933;28;20352;-83
2022/10/28 02:14:56;;;;;;;;;;;17.50;80.80;;;;;;5004398;28;20069;-77
2022/10/28 02:17:48;;;;;;;16.40;6.32;;;17.50;81.00;;;;;;5005643;28;19921;-80
2022/10/28 02:20:26;;;;;;;13.55;5.95;;;17.50;80.90;;;;;;4999190;28;20026;-78
2022/10/28 02:23:23;;;;;;;16.23;6.80;;;17.50;80.80;;;;;;5005756;28;20044;-74
2022/10/28 02:26:15;;;;;;;14.38;6.57;;;17.50;80.80;;;;;;5003998;28;20188;-81
2022/10/28 02:28:47;;;;;;;18.40;6.68;;;17.50;80.90;;;;;;5002607;28;20038;-76
2022/10/28 02:31:24;;;;;;;16.67;6.93;;;17.40;80.90;;;;;;5004465;28;20033;-74
2022/10/28 02:33:56;;;;;;;18.02;7.10;;;17.40;81.00;;;;;;5004906;28;20049;-74
2022/10/28 02:36:24;;;;;;;16.02;6.70;;;17.30;81.10;;;;;;5000881;28;21896;-77
2022/10/28 02:38:54;;;;;;;15.43;6.70;;;17.30;81.10;;;;;;5004829;28;20041;-77
2022/10/28 02:41:30;;;;;;;15.32;6.30;;;17.20;81.30;;;;;;5004208;28;20152;-78
2022/10/28 02:44:00;;;;;;;14.13;6.75;;;17.20;81.40;;;;;;4994172;28;20073;-78
2022/10/28 02:46:28;;;;;;;15.90;6.28;;;17.10;81.50;;;;;;5011977;28;20030;-74
2022/10/28 02:48:59;;;;;;;17.83;6.72;;;17.10;81.60;;;;;;4989298;28;20061;-78
2022/10/28 02:51:30;;;;;;;15.50;6.53;;;17.10;81.80;;;;;;4986448;28;20049;-74
2022/10/28 02:54:06;;;;;;;16.17;7.05;;;17.10;82.00;;;;;;4986476;28;20133;-76
2022/10/28 02:56:38;;;;;;;14.80;6.20;;;17.10;81.90;;;;;;4986611;28;20080;-74
2022/10/28 02:59:09;;;;;;;17.35;6.45;;;17.10;81.90;;;;;;5003089;28;20034;-77
2022/10/28 03:01:35;;;;;;;16.60;6.40;;;17.10;81.70;;;;;;5006823;28;20109;-79
2022/10/28 03:04:02;;;;;;;14.25;6.38;;;17.10;81.70;;;;;;5003216;28;20118;-77
2022/10/28 03:06:27;;;;;;;15.68;6.20;;;17.10;81.70;;;;;;5003979;28;20030;-75
2022/10/28 03:08:53;;;;;;;15.18;6.38;;;17.10;81.70;;;;;;5004279;28;20037;-75
2022/10/28 03:11:19;;;;;;;13.48;5.80;;;17.10;81.60;;;;;;5005696;28;20133;-78
2022/10/28 03:13:44;;;;;;;15.48;6.70;;;17.10;81.50;;;;;;5002420;28;20466;-79
2022/10/28 03:16:10;;;;;;;18.73;7.38;;;17.10;81.60;;;;;;5005780;28;20041;-77
2022/10/28 03:18:36;;;;;;;16.75;6.03;;;17.10;81.40;;;;;;4987865;28;20040;-75
2022/10/28 03:21:01;;;;;;;19.65;6.75;;;17.10;81.40;;;;;;4987251;28;20513;-75
2022/10/28 03:23:27;;;;;;;17.52;6.40;;;17.10;81.40;;;;;;5003854;28;20114;-82
2022/10/28 03:25:53;;;;;;;14.45;6.18;;;17.10;81.40;;;;;;4998929;28;20038;-78
2022/10/28 03:28:18;;;;;;;16.23;6.93;;;17.10;81.30;;;;;;5003961;28;20104;-76
2022/10/28 03:30:44;;;;;;;15.77;6.10;;;17.10;81.40;;;;;;5003411;28;20416;-76
2022/10/28 03:33:10;;;;;;;19.75;6.78;;;17.10;81.30;;;;;;5003467;28;20374;-79
2022/10/28 03:35:35;;;;;;;17.00;6.43;;;17.10;81.30;;;;;;5003643;28;20076;-78
2022/10/28 03:38:01;;;;;;;19.67;6.75;;;17.10;81.30;;;;;;5003234;28;20544;-75
2022/10/28 03:40:27;;;;;;;15.38;6.20;;;17.00;81.40;;;;;;5003898;28;20034;-83
2022/10/28 03:42:52;;;;;;;14.93;6.13;;;17.10;81.40;;;;;;5003770;28;20041;-75
2022/10/28 03:45:18;;;;;;;14.80;6.20;;;17.10;81.20;;;;;;5003454;28;20040;-79
2022/10/28 03:47:43;;;;;;;17.10;6.05;;;17.10;81.20;;;;;;5000505;28;20034;-77
2022/10/28 03:50:09;;;;;;;13.07;6.30;;;17.00;81.30;;;;;;4988087;28;20059;-75
2022/10/28 03:52:35;;;;;;;15.10;6.38;;;17.00;81.30;;;;;;4991586;28;20464;-76
2022/10/28 03:55:01;;;;;;;16.63;6.35;;;17.00;81.40;;;;;;4986473;28;20463;-77
2022/10/28 03:57:30;;;;;;;13.02;5.93;;;17.00;81.30;;;;;;4985106;28;20053;-79
2022/10/28 03:59:56;;;;;;;16.83;6.43;;;17.00;81.30;;;;;;5008069;28;20036;-79
2022/10/28 04:02:21;;;;;;;15.27;5.75;;;17.00;81.40;;;;;;5010127;28;20389;-74
2022/10/28 04:04:47;;;;;;;16.98;6.63;;;17.00;81.50;;;;;;5003595;28;20380;-80
2022/10/28 04:07:12;;;;;;;14.38;6.53;;;17.00;81.50;;;;;;5007881;28;20073;-76
2022/10/28 04:09:38;;;;;;;14.60;6.35;;;17.00;81.30;;;;;;5004618;28;20347;-75
2022/10/28 04:12:05;;;;;;;15.93;6.40;;;17.00;81.30;;;;;;5003126;28;20061;-75
2022/10/28 04:14:30;;;;;;;14.95;6.68;;;17.00;81.20;;;;;;5002477;28;20355;-79
2022/10/28 04:16:56;;;;;;;15.32;6.15;;;17.00;81.40;;;;;;4990621;28;20121;-81
2022/10/28 04:19:22;;;;;;;16.40;6.57;;;17.00;81.20;;;;;;4995446;28;20029;-80
2022/10/28 04:21:47;;;;;;;16.45;5.95;;;17.00;81.20;;;;;;4989666;28;20034;-77
2022/10/28 04:24:13;;;;;;;16.30;6.05;;;17.00;81.10;;;;;;4988959;28;20032;-77
2022/10/28 04:26:39;;;;;;;17.20;6.78;;;17.00;81.20;;;;;;4982577;28;20040;-78
2022/10/28 04:29:04;;;;;;;13.73;6.18;;;17.00;81.10;;;;;;4996542;28;20033;-78
2022/10/28 04:31:30;;;;;;;17.92;6.20;;;16.90;81.20;;;;;;4984159;28;20069;-78
2022/10/28 04:33:55;;;;;;;18.13;6.97;;;16.90;81.20;;;;;;4994972;28;20041;-75
2022/10/28 04:36:21;;;;;;;16.38;6.55;;;16.90;81.30;;;;;;4993658;28;20050;-79
2022/10/28 04:38:47;;;;;;;17.42;6.05;;;16.90;81.50;;;;;;4996110;28;20507;-77
2022/10/28 04:41:13;;;;;;;18.75;6.45;;;16.90;81.50;;;;;;4992910;28;20030;-82
2022/10/28 04:43:39;;;;;;;17.48;6.32;;;16.80;81.50;;;;;;4996173;28;20068;-81
2022/10/28 04:46:05;;;;;;;15.50;6.70;;;16.80;81.40;;;;;;4994453;28;20128;-76
2022/10/28 04:48:33;;;;;;;18.20;5.90;;;16.90;81.50;;;;;;4993405;28;20037;-78
2022/10/28 04:50:59;;;;;;;16.88;6.43;;;16.80;81.50;;;;;;4996397;28;20438;-75
2022/10/28 04:53:25;;;;;;;17.95;7.43;;;16.80;81.50;;;;;;4985036;28;20307;-76
2022/10/28 04:55:50;;;;;;;12.38;5.85;;;16.70;81.90;;;;;;5000396;28;20061;-79
2022/10/28 04:58:17;;;;;;;18.30;7.13;;;16.70;81.80;;;;;;4998786;28;20139;-81
2022/10/28 05:00:42;;;;;;;15.30;6.78;;;16.70;81.70;;;;;;4996140;28;20038;-84
2022/10/28 05:03:08;;;;;;;18.30;7.32;;;16.70;81.80;;;;;;4998650;28;20036;-80
2022/10/28 05:05:34;;;;;;;18.95;6.93;;;16.70;82.00;;;;;;4994264;28;20053;-78
2022/10/28 05:07:59;;;;;;;16.02;6.50;;;16.70;81.80;;;;;;4977705;28;20437;-79
2022/10/28 05:10:25;;;;;;;19.63;7.13;;;16.70;81.90;;;;;;4992647;28;20022;-76
2022/10/28 05:12:51;;;;;;;16.92;7.25;;;16.70;81.90;;;;;;4993845;28;20153;-76
2022/10/28 05:15:16;;;;;;;17.77;6.28;;;16.70;81.80;;;;;;4993882;28;20035;-82
2022/10/28 05:17:43;;;;;;;16.73;6.82;;;16.70;81.70;;;;;;5001286;28;20049;-82
2022/10/28 05:20:10;;;;;;;18.85;6.70;;;16.70;81.60;;;;;;4993468;28;20069;-80
2022/10/28 05:22:36;;;;;;;13.55;5.80;;;16.70;81.70;;;;;;4995690;28;20420;-82
2022/10/28 05:25:02;;;;;;;15.20;6.65;;;16.80;81.40;;;;;;4993991;28;20030;-75
2022/10/28 05:27:28;;;;;;;18.40;6.18;;;16.80;81.50;;;;;;4994767;28;20038;-77
2022/10/28 05:29:53;;;;;;;24.65;7.47;;;16.80;81.40;;;;;;4997237;28;20355;-77
2022/10/28 05:32:19;;;;;;;18.63;6.32;;;16.80;81.30;;;;;;5000724;28;20050;-78
2022/10/28 05:34:44;;;;;;;14.40;6.03;;;16.90;81.10;;;;;;5002550;28;20034;-76
2022/10/28 05:37:10;;;;;;;18.25;6.32;;;16.90;80.90;;;;;;4986368;28;20471;-77
2022/10/28 05:39:36;;;;;;;16.20;6.45;;;16.80;81.00;;;;;;5004483;28;20136;-78
2022/10/28 05:42:01;;;;;;;15.35;5.72;;;16.90;80.90;;;;;;4994283;28;20082;-76
2022/10/28 05:44:27;;;;;;;14.07;6.35;;;16.90;80.70;;;;;;4985898;28;20103;-76
2022/10/28 05:46:53;;;;;;;14.95;5.75;;;17.00;80.70;;;;;;4989597;28;20400;-77
2022/10/28 05:49:19;;;;;;;16.33;6.07;;;16.90;80.50;;;;;;4996397;28;20041;-76
2022/10/28 05:51:45;;;;;;;18.70;6.05;;;16.90;80.60;;;;;;4997814;28;20034;-82
2022/10/28 05:54:11;;;;;;;18.92;6.20;;;16.90;80.70;;;;;;4982256;28;20035;-77
2022/10/28 05:56:37;;;;;;;14.82;5.35;;;16.90;80.80;;;;;;4996479;28;20247;-75
2022/10/28 05:59:03;;;;;;;15.40;5.97;;;16.90;80.60;;;;;;4988788;28;20109;-75
2022/10/28 06:01:28;;;;;;;17.92;6.07;;;16.90;80.80;;;;;;4997463;28;20113;-78
2022/10/28 06:03:54;;;;;;;20.00;6.20;;;16.90;80.70;;;;;;4996306;28;20026;-80
2022/10/28 06:06:20;;;;;;;17.85;6.30;;;16.90;81.00;;;;;;4999203;28;20140;-77
2022/10/28 06:08:45;;;;;;;15.23;6.03;;;16.90;80.90;;;;;;4996779;28;20412;-75
2022/10/28 06:11:11;;;;;;;17.65;5.75;;;17.00;80.60;;;;;;4999605;28;20103;-78
2022/10/28 06:13:37;;;;;;;16.70;5.72;;;17.00;80.40;;;;;;4973840;28;20074;-75
2022/10/28 06:16:04;;;;;;;15.75;6.10;;;17.10;80.30;;;;;;4964186;28;20078;-77
2022/10/28 06:18:30;;;;;;;17.15;6.15;;;17.10;80.00;;;;;;4966616;28;20022;-75
2022/10/28 06:20:57;;;;;;;15.32;6.47;;;17.10;79.80;;;;;;4960346;28;20042;-77
2022/10/28 06:23:23;;;;;;;19.80;6.75;;;17.20;79.80;;;;;;4961285;28;20030;-82
2022/10/28 06:25:49;;;;;;;18.75;5.93;;;17.30;79.60;;;;;;4953789;28;20472;-78
2022/10/28 06:28:15;;;;;;;16.02;5.55;;;17.30;79.50;;;;;;4951722;28;20039;-78
2022/10/28 06:30:40;;;;;;;11.50;4.97;;;17.30;79.50;;;;;;4961125;28;20027;-78
2022/10/28 06:33:06;;;;;;;12.10;5.75;;;17.20;79.40;;;;;;4971058;28;20034;-81
2022/10/28 06:35:32;;;;;;;17.35;5.93;;;17.20;79.60;;;;;;4966224;28;20180;-78
2022/10/28 06:37:57;;;;;;;16.73;5.50;;;17.20;79.90;;;;;;4955304;28;20042;-80
2022/10/28 06:40:24;;;;;;;15.93;5.78;;;17.10;80.00;;;;;;4960777;28;20047;-82
2022/10/28 06:43:01;;;;;;;15.10;5.97;;;17.20;79.90;;;;;;4967302;28;20166;-80
2022/10/28 06:45:31;;;;;;;13.38;6.03;;;17.20;79.90;;;;;;4961461;28;20023;-81
2022/10/28 06:47:59;;;;;;;18.45;6.00;;;17.10;79.90;;;;;;4969256;28;20099;-81
2022/10/28 06:50:25;;;;;;;13.98;6.00;;;17.20;80.10;;;;;;4964661;28;20035;-82
2022/10/28 06:52:51;;;;;;;14.77;5.93;;;17.10;80.00;;;;;;4965806;28;20039;-80
2022/10/28 06:55:16;;;;;;;14.65;5.88;;;17.10;80.10;;;;;;4957041;28;20568;-82
2022/10/28 06:57:42;;;;;;;14.57;5.90;;;17.20;80.20;;;;;;4962523;28;20047;-82
2022/10/28 07:00:08;;;;;;;17.48;5.85;;;17.10;80.20;;;;;;4966738;28;20045;-82
2022/10/28 07:02:34;;;;;;;18.25;6.15;;;17.20;79.90;;;;;;4967946;28;20142;-82
2022/10/28 07:04:59;;;;;;;16.30;6.05;;;17.30;80.00;;;;;;4959277;28;20123;-81
2022/10/28 07:07:25;;;;;;;19.25;6.45;;;17.30;79.90;;;;;;4958500;28;20535;-81
2022/10/28 07:09:51;;;;;;;15.95;5.57;;;17.50;79.70;;;;;;4976759;28;20065;-80
2022/10/28 07:12:16;;;;;;;17.23;6.00;;;17.50;79.50;;;;;;4988321;28;20030;-81
2022/10/28 07:14:43;;;;;;;15.07;5.65;;;17.60;79.20;;;;;;5021864;28;20045;-80
2022/10/28 07:17:09;;;;;;;14.73;6.10;;;17.70;78.90;;;;;;5012484;28;20046;-80
2022/10/28 07:19:35;;;;;;;16.35;5.78;;;17.70;78.80;;;;;;5002060;28;20033;-80
2022/10/28 07:22:00;;;;;;;17.55;6.63;;;17.70;78.50;;;;;;4996060;28;20040;-81
2022/10/28 07:24:26;;;;;;;18.52;6.38;;;17.80;78.50;;;;;;4993743;28;20056;-80
2022/10/28 07:26:51;;;;;;;17.92;6.35;;;17.80;78.40;;;;;;5012548;28;20049;-81
2022/10/28 07:29:17;;;;;;;18.83;6.25;;;17.90;78.30;;;;;;5007715;28;20458;-82
2022/10/28 07:31:43;;;;;;;20.42;6.28;;;18.00;78.10;;;;;;4997871;28;20049;-81
2022/10/28 07:34:08;;;;;;;16.55;5.47;;;18.00;77.80;;;;;;4992045;28;20377;-82
2022/10/28 07:36:34;;;;;;;20.02;5.75;;;18.10;77.50;;;;;;5013782;28;20140;-79
2022/10/28 07:39:00;;;;;;;17.48;5.80;;;18.10;77.40;;;;;;5012232;28;20037;-79
2022/10/28 07:41:26;;;;;;;15.73;6.40;;;18.10;77.30;;;;;;5007508;28;20038;-80
2022/10/28 07:43:52;;;;;;;18.27;5.75;;;18.20;77.20;;;;;;5008430;28;20022;-80
2022/10/28 07:46:18;;;;;;;19.58;5.80;;;18.20;77.00;;;;;;5001878;28;20079;-81
2022/10/28 07:48:45;;;;;;;17.88;6.07;;;18.20;77.00;;;;;;5008751;28;20082;-79
2022/10/28 07:51:13;;;;;;;15.07;6.38;;;18.30;76.90;;;;;;4997172;28;20064;-79
2022/10/28 07:53:41;;;;;;;15.90;6.13;;;18.30;76.90;;;;;;4999618;28;20022;-79
2022/10/28 07:56:12;;;;;;;17.25;6.13;;;18.30;76.80;;;;;;5004026;28;20092;-79
2022/10/28 07:58:38;;;;;;;17.40;5.95;;;18.40;76.70;;;;;;5000694;28;20034;-79
2022/10/28 08:01:06;;;;;;;15.40;6.18;;;18.40;76.50;;;;;;5000698;28;20041;-78
2022/10/28 08:03:32;;;;;;;14.95;5.72;;;18.40;76.40;;;;;;4984172;28;20496;-81
2022/10/28 08:06:04;;;;;;;18.85;5.85;;;18.50;76.20;;;;;;5003938;28;20107;-81
2022/10/28 08:08:31;;;;;;;14.73;6.00;;;18.60;76.20;;;;;;4999936;28;20757;-83
2022/10/28 08:10:56;;;;;;;18.70;6.00;;;18.60;76.10;;;;;;5001047;28;20085;-82
2022/10/28 08:13:22;;;;;;;17.27;5.82;;;18.60;75.80;;;;;;4996893;28;20473;-84
2022/10/28 08:15:54;;;;;;;18.45;6.40;;;18.70;75.70;;;;;;5001631;28;20530;-82
2022/10/28 08:18:21;;;;;;;20.48;6.28;;;18.80;75.30;;;;;;5000744;28;20038;-83
2022/10/28 08:20:47;;;;;;;16.05;6.68;;;19.00;74.80;;;;;;4985392;28;20038;-81
2022/10/28 08:23:14;;;;;;;14.73;5.13;;;19.10;74.30;;;;;;5000886;28;20041;-84
2022/10/28 08:25:47;;;;;;;19.42;6.22;;;19.20;73.80;;;;;;5001232;28;20046;-83
2022/10/28 08:28:13;;;;;;;14.60;6.00;;;19.30;73.70;;;;;;5000290;28;20037;-82
2022/10/28 08:30:39;;;;;;;17.13;6.32;;;19.50;73.20;;;;;;5003339;28;20045;-79
2022/10/28 08:33:05;;;;;;;19.48;6.35;;;19.60;72.40;;;;;;4997939;28;20070;-81
2022/10/28 08:35:30;;;;;;;15.73;5.88;;;19.80;71.60;;;;;;4998703;28;20253;-81
2022/10/28 08:37:56;;;;;;;15.85;5.72;;;19.90;71.40;;;;;;5001089;28;20042;-79
2022/10/28 08:40:45;;;;;;;15.80;5.82;;;20.10;71.10;;;;;;5000924;28;20081;-79
2022/10/28 08:43:26;;;;;;;14.95;5.57;;;20.10;70.70;;;;;;4997069;28;20034;-85
2022/10/28 08:46:12;;;;;;;17.42;6.53;;;20.20;70.20;;;;;;4998424;28;20021;-81
2022/10/28 08:48:39;;;;;;;18.80;6.30;;;20.30;70.20;;;;;;4997587;28;20026;-78
2022/10/28 08:51:39;;;;;;;19.77;5.95;;;20.40;69.80;;;;;;4998664;28;20116;-80
2022/10/28 08:54:15;;;;;;;17.25;5.70;;;20.50;69.70;;;;;;4985930;28;20042;-80
2022/10/28 08:56:44;;;;;;;20.00;5.68;;;20.60;69.40;;;;;;4999945;28;20129;-82
2022/10/28 08:59:16;;;;;;;16.00;5.75;;;20.50;69.00;;;;;;4992268;28;20037;-80
2022/10/28 09:01:51;;;;;;;15.07;5.80;;;20.60;69.40;;;;;;5000126;28;20034;-81
2022/10/28 09:04:36;;;;;;;18.48;6.50;;;20.70;69.40;;;;;;5002390;28;20369;-79
2022/10/28 09:07:02;;;;;;;19.48;5.63;;;20.70;69.10;;;;;;5010950;28;20037;-78
2022/10/28 09:09:28;;;;;;;15.80;5.65;;;20.70;69.10;;;;;;5007948;28;21010;-82
2022/10/28 09:12:03;;;;;;;14.60;4.80;;;20.80;68.90;;;;;;4988197;28;20030;-83
2022/10/28 09:14:58;;;;;;;16.40;5.05;;;20.90;68.20;;;;;;4988097;28;20046;-81
2022/10/28 09:17:36;;;;;;;23.00;5.80;;;21.00;67.90;;;;;;5002706;28;20076;-82
2022/10/28 09:20:22;;;;;;;21.45;5.93;;;21.00;67.60;;;;;;4987404;28;20057;-81
2022/10/28 09:23:25;;;;;;;21.65;5.93;;;21.10;67.30;;;;;;5003574;28;20034;-78
2022/10/28 09:26:13;;;;;;;14.02;5.22;;;21.20;67.30;;;;;;5002250;28;20045;-82
2022/10/28 09:28:47;;;;;;;15.23;5.35;;;21.30;66.50;;;;;;5004125;28;20038;-82
2022/10/28 09:31:13;;;;;;;19.17;6.18;;;21.50;66.40;;;;;;5007086;28;20034;-77
2022/10/28 09:34:05;;;;;;;13.23;5.80;;;21.50;66.20;;;;;;5012862;28;20052;-78
2022/10/28 09:36:35;;;;;;;18.25;5.75;;;21.50;66.10;;;;;;5012705;28;20500;-79
2022/10/28 09:39:04;;;;;;;15.48;6.00;;;21.60;65.70;;;;;;4997883;28;20041;-81
2022/10/28 09:41:41;;;;;;;15.00;5.18;;;21.70;65.30;;;;;;5006279;28;20042;-83
2022/10/28 09:44:16;;;;;;;17.80;6.13;;;21.70;65.20;;;;;;5005208;28;20403;-83
2022/10/28 09:46:45;;;;;;;15.13;5.47;;;21.60;65.90;;;;;;5003009;28;20033;-85
2022/10/28 09:49:17;;;;;;;19.25;5.90;;;21.50;65.70;;;;;;5002571;28;20034;-80
2022/10/28 09:52:18;;;;;;;19.38;5.45;;;21.40;66.70;;;;;;5003631;28;20105;-79
2022/10/28 09:54:51;;;;;;;17.58;6.10;;;21.40;67.30;;;;;;4998410;28;20084;-81
2022/10/28 09:57:18;;;;;;;17.17;5.38;;;21.30;66.70;;;;;;5004129;28;20489;-81
2022/10/28 09:59:44;;;;;;;19.08;6.10;;;21.20;67.40;;;;;;5005143;28;20030;-81
2022/10/28 10:02:29;;;;;;;18.13;5.13;;;21.20;67.50;;;;;;5003469;28;20029;-81
2022/10/28 10:05:00;;;;;;;17.58;5.43;;;21.20;67.50;;;;;;5000684;28;20046;-81
2022/10/28 10:07:32;;;;;;;14.98;5.30;;;21.20;67.80;;;;;;5004590;28;20038;-81
2022/10/28 10:10:01;;;;;;;17.42;5.38;;;21.30;68.00;;;;;;5004051;28;20042;-79
2022/10/28 10:12:30;;;;;;;19.95;5.60;;;21.60;67.70;;;;;;4999006;28;20116;-81
2022/10/28 10:14:57;;;;;;;14.82;5.47;;;21.70;66.90;;;;;;5000255;28;20026;-81
2022/10/28 10:17:31;;;;;;;20.65;5.43;;;21.80;66.10;;;;;;5003951;28;20115;-81
2022/10/28 10:20:04;;;;;;;14.15;4.78;;;21.80;66.10;;;;;;5005348;28;20053;-82
2022/10/28 10:22:35;;;;;;;18.20;5.30;;;21.60;66.30;;;;;;5007464;28;20030;-79
2022/10/28 10:25:16;;;;;;;14.18;5.75;;;21.80;66.80;;;;;;5010102;28;20038;-80
2022/10/28 10:27:48;;;;;;;17.58;5.13;;;21.80;66.50;;;;;;4996997;28;20070;-79
2022/10/28 10:30:22;;;;;;;16.58;5.22;;;22.00;66.10;;;;;;4994964;28;20038;-79
2022/10/28 10:32:48;;;;;;;14.57;4.85;;;22.10;66.00;;;;;;4997976;28;20030;-79
2022/10/28 10:35:19;;;;;;;12.65;5.25;;;22.10;66.00;;;;;;4993821;28;20319;-79
2022/10/28 10:37:46;;;;;;;19.95;5.57;;;22.20;65.70;;;;;;4996468;28;20030;-79
2022/10/28 10:40:15;;;;;;;15.63;5.60;;;22.20;65.50;;;;;;4975692;28;20069;-79
2022/10/28 10:42:40;;;;;;;15.65;5.47;;;22.30;65.30;;;;;;4996673;28;20029;-80
2022/10/28 10:45:18;;;;;;;15.93;5.05;;;22.30;65.20;;;;;;4992164;28;20114;-79
2022/10/28 10:47:44;;;;;;;15.38;5.28;;;22.20;65.40;;;;;;4994452;28;20103;-83
2022/10/28 10:50:30;;;;;;;15.63;5.57;;;22.20;65.50;;;;;;4993464;28;20045;-84
2022/10/28 10:52:58;;;;;;;14.23;6.22;;;22.30;65.90;;;;;;4997051;28;20026;-83
2022/10/28 10:55:33;;;;;;;15.63;5.32;;;22.40;65.90;;;;;;4993791;28;20414;-85
2022/10/28 10:58:00;;;;;;;16.05;5.85;;;22.60;65.20;;;;;;4996214;28;20072;-76
2022/10/28 11:00:34;;;;;;;19.27;5.68;;;22.60;65.10;;;;;;4996980;28;20034;-75
2022/10/28 11:03:00;;;;;;;18.33;6.60;;;22.50;65.30;;;;;;4998043;28;20072;-77
2022/10/28 11:05:27;;;;;;;18.10;6.20;;;22.40;65.80;;;;;;4994266;28;20485;-76
2022/10/28 11:07:53;;;;;;;18.00;5.82;;;22.40;66.00;;;;;;4996949;28;20037;-78
2022/10/28 11:10:24;;;;;;;16.65;5.80;;;22.50;65.40;;;;;;4994922;28;20224;-80
2022/10/28 11:13:24;;;;;;;17.17;6.18;;;22.50;65.50;;;;;;4994281;28;20367;-80
2022/10/28 11:15:59;;;;;;;16.05;6.32;;;22.60;65.50;;;;;;4970630;28;20036;-81
2022/10/28 11:18:25;;;;;;;14.27;5.53;;;22.80;65.40;;;;;;4996085;28;20077;-80
2022/10/28 11:21:25;;;;;;;18.60;5.80;;;22.90;64.50;;;;;;4995353;28;20037;-79
2022/10/28 11:24:10;;;;;;;16.65;5.45;;;22.90;65.20;;;;;;4996244;28;20037;-80
2022/10/28 11:26:43;;;;;;;18.52;6.13;;;23.10;65.10;;;;;;4994018;28;20058;-76
2022/10/28 11:29:13;;;;;;;12.35;5.68;;;23.20;64.90;;;;;;4980858;28;20038;-76
2022/10/28 11:32:02;;;;;;;18.02;5.60;;;23.10;64.00;;;;;;5010005;28;20125;-78
2022/10/28 11:34:49;;;;;;;14.70;5.05;;;23.10;64.80;;;;;;5002190;28;20432;-81
2022/10/28 11:37:47;;;;;;;14.75;5.82;;;23.10;64.00;;;;;;4994151;28;20165;-79
2022/10/28 11:40:33;;;;;;;17.85;5.18;;;23.00;63.90;;;;;;4998666;28;20026;-79
2022/10/28 11:43:27;;;;;;;21.38;6.50;;;22.90;64.50;;;;;;5002186;28;20030;-79
2022/10/28 11:46:12;;;;;;;14.52;5.03;;;23.00;64.30;;;;;;5001679;28;20033;-77
2022/10/28 11:49:18;;;;;;;18.88;5.13;;;23.10;63.70;;;;;;4992116;28;20529;-78
2022/10/28 11:52:17;;;;;;;15.90;5.38;;;23.10;63.30;;;;;;4998008;28;20444;-78
2022/10/28 11:55:00;;;;;;;13.70;5.53;;;23.10;63.60;;;;;;5001905;28;20038;-79
2022/10/28 11:57:41;;;;;;;16.75;5.80;;;23.10;64.00;;;;;;5001124;28;20074;-77
2022/10/28 12:00:22;;;;;;;14.52;5.70;;;23.10;64.20;;;;;;4996190;28;20302;-78
2022/10/28 12:03:12;;;;;;;17.10;5.45;;;23.20;64.20;;;;;;4984119;28;20401;-83
2022/10/28 12:05:38;;;;;;;17.67;5.53;;;23.20;64.00;;;;;;5003430;28;20057;-76
2022/10/28 12:08:27;;;;;;;15.00;5.13;;;23.30;64.10;;;;;;4980411;28;20528;-78
2022/10/28 12:11:08;;;;;;;21.98;6.07;;;23.30;63.30;;;;;;4978780;28;20136;-76
2022/10/28 12:14:01;;;;;;;14.18;5.80;;;23.40;63.60;;;;;;4995467;28;20072;-77
2022/10/28 12:16:39;;;;;;;17.55;5.28;;;23.40;63.60;;;;;;4951902;28;20080;-79
2022/10/28 12:19:33;;;;;;;12.70;5.28;;;23.40;63.70;;;;;;5000550;28;20110;-79
2022/10/28 12:22:22;;;;;;;15.10;5.20;;;23.50;63.90;;;;;;4997100;28;20041;-78
2022/10/28 12:24:49;;;;;;;16.15;5.10;;;23.80;62.70;;;;;;5000403;28;20061;-81
2022/10/28 12:27:28;;;;;;;13.55;5.50;;;23.80;62.60;;;;;;5000171;28;20593;-79
2022/10/28 12:30:13;;;;;;;22.23;5.47;;;23.90;62.50;;;;;;4984740;28;20026;-76
2022/10/28 12:32:42;;;;;;;15.45;5.13;;;23.80;62.10;;;;;;4996055;28;20049;-76
2022/10/28 12:35:18;;;;;;;15.93;5.03;;;23.80;62.00;;;;;;4998362;28;20050;-77
2022/10/28 12:38:07;;;;;;;14.40;5.00;;;23.60;61.80;;;;;;5000865;28;20162;-76
2022/10/28 12:40:43;;;;;;;16.65;5.57;;;23.70;62.00;;;;;;4987227;28;20092;-77
2022/10/28 12:43:27;;;;;;;13.32;5.40;;;23.80;62.00;;;;;;4999454;28;20461;-80
2022/10/28 12:45:55;;;;;;;14.25;5.60;;;23.50;62.50;;;;;;5002527;28;20473;-78
2022/10/28 12:48:30;;;;;;;17.05;5.75;;;23.60;63.20;;;;;;5007015;28;20529;-77
2022/10/28 12:51:15;;;;;;;15.85;5.30;;;23.70;62.50;;;;;;5013874;28;20030;-77
2022/10/28 12:54:02;;;;;;;16.10;5.30;;;23.70;61.80;;;;;;4999921;28;20038;-79
2022/10/28 12:56:34;;;;;;;15.20;4.90;;;23.60;62.40;;;;;;4997659;28;20042;-79
2022/10/28 12:59:06;;;;;;;13.32;5.25;;;23.60;62.80;;;;;;5000015;28;20474;-78
2022/10/28 13:01:33;;;;;;;16.17;5.07;;;23.50;62.70;;;;;;4998179;28;20038;-81